Time;durP1;ratioP1;P1;durP2;ratioP2;P2;SDS_P1;SDS_P2;PMS_P1;PMS_P2;Temp;Humidity;BMP_temperature;BMP_pressure;BME280_temperature;BME280_humidity;BME280_pressure;Samples;Min_cycle;Max_cycle;Signal;HPM_P1;HPM_P2
2021/07/05 00:01:02;;;;;;;11.50;7.83;;;;;;;15.35;89.61;100657.53;5035837;28;20461;-82
2021/07/05 00:03:27;;;;;;;10.03;8.17;;;;;;;15.23;90.21;100655.88;5033144;28;20248;-81
2021/07/05 00:05:54;;;;;;;9.00;8.10;;;;;;;16.54;90.98;100834.13;5030737;28;20439;-83
2021/07/05 00:08:19;;;;;;;9.90;8.90;;;;;;;16.74;89.84;100861.63;5047783;28;20192;-82
2021/07/05 00:10:44;;;;;;;10.53;8.43;;;;;;;15.91;90.41;100758.06;5031473;28;20497;-82
2021/07/05 00:13:10;;;;;;;9.10;8.10;;;;;;;16.08;90.63;100760.84;5027799;28;20275;-82
2021/07/05 00:15:35;;;;;;;11.47;9.40;;;;;;;16.85;90.32;100881.66;5026587;28;20184;-82
2021/07/05 00:18:04;;;;;;;12.17;10.30;;;;;;;16.70;90.71;100882.94;5028369;28;21064;-82
2021/07/05 00:20:33;;;;;;;10.13;9.13;;;;;;;16.76;91.50;100883.91;5040613;28;20196;-83
2021/07/05 00:22:59;;;;;;;10.50;9.03;;;;;;;16.04;90.59;100779.44;5025041;28;20459;-81
2021/07/05 00:25:25;;;;;;;10.40;9.50;;;;;;;16.00;90.35;100778.28;5027472;28;20443;-81
2021/07/05 00:27:50;;;;;;;9.77;8.80;;;;;;;15.45;90.53;100665.06;5025699;28;20597;-82
2021/07/05 00:30:17;;;;;;;9.70;8.90;;;;;;;14.78;90.55;100557.34;5027173;28;20552;-81
2021/07/05 00:32:44;;;;;;;9.67;8.77;;;;;;;16.47;90.82;100826.13;5024481;28;20223;-82
2021/07/05 00:35:11;;;;;;;9.50;8.60;;;;;;;16.81;90.67;100867.78;5024612;28;20443;-83
2021/07/05 00:37:36;;;;;;;12.20;11.10;;;;;;;16.14;90.83;100775.31;5040271;28;20836;-82
2021/07/05 00:40:05;;;;;;;9.80;8.90;;;;;;;16.80;90.78;100873.41;5030686;28;20501;-82
2021/07/05 00:42:30;;;;;;;10.83;9.70;;;;;;;16.78;90.65;100876.38;5038933;28;20786;-82
2021/07/05 00:44:56;;;;;;;10.60;9.50;;;;;;;16.72;90.82;100866.44;5023919;28;20435;-82
2021/07/05 00:47:21;;;;;;;10.43;9.17;;;;;;;16.15;90.98;100755.34;5025801;28;20197;-82
2021/07/05 00:49:47;;;;;;;11.37;10.20;;;;;;;16.86;90.67;100858.91;5025200;28;20240;-83
2021/07/05 00:52:12;;;;;;;12.50;9.63;;;;;;;16.06;90.39;100735.13;5024867;28;21104;-83
2021/07/05 00:54:41;;;;;;;10.73;9.63;;;;;;;16.11;90.52;100748.75;5035904;28;20197;-82
2021/07/05 00:57:19;;;;;;;10.87;9.87;;;;;;;16.70;90.78;100838.78;5025801;28;20215;-82
2021/07/05 00:59:47;;;;;;;12.70;11.00;;;;;;;16.69;91.46;100850.69;5027037;28;20435;-82
2021/07/05 01:02:13;;;;;;;11.53;10.50;;;;;;;15.78;90.68;100718.56;5023799;28;20463;-82
2021/07/05 01:04:38;;;;;;;11.70;10.60;;;;;;;16.16;90.13;100729.91;5025442;28;20605;-82
2021/07/05 01:07:04;;;;;;;12.30;11.10;;;;;;;16.17;90.47;100761.31;5024794;28;20207;-82
2021/07/05 01:09:29;;;;;;;11.23;10.13;;;;;;;15.78;90.28;100696.91;5025209;28;20189;-82
2021/07/05 01:11:54;;;;;;;11.67;9.53;;;;;;;16.68;91.24;100859.88;5027729;28;20283;-82
2021/07/05 01:14:20;;;;;;;12.00;10.87;;;;;;;16.08;90.89;100774.38;5022599;28;20200;-82
2021/07/05 01:16:45;;;;;;;12.87;11.40;;;;;;;16.55;90.90;100860.97;5019584;28;20188;-83
2021/07/05 01:19:11;;;;;;;10.80;9.70;;;;;;;16.03;90.41;100741.84;5038913;28;20230;-82
2021/07/05 01:21:36;;;;;;;13.90;12.50;;;;;;;15.79;91.45;100731.03;5037135;28;20208;-82
2021/07/05 01:24:02;;;;;;;12.83;11.20;;;;;;;16.25;91.37;100812.38;5024811;28;20185;-82
2021/07/05 01:26:28;;;;;;;15.47;11.70;;;;;;;16.49;90.69;100826.72;5018165;28;20261;-83
2021/07/05 01:28:53;;;;;;;16.67;12.20;;;;;;;16.05;91.22;100769.44;5003007;28;20505;-82
2021/07/05 01:31:18;;;;;;;13.30;12.00;;;;;;;15.49;91.46;100695.13;5023062;28;20474;-82
2021/07/05 01:33:44;;;;;;;14.40;11.47;;;;;;;16.30;91.16;100807.09;5021936;28;20208;-83
2021/07/05 01:36:11;;;;;;;13.57;12.20;;;;;;;16.13;91.12;100790.75;5022635;28;20196;-82
2021/07/05 01:38:40;;;;;;;13.17;11.87;;;;;;;16.31;91.00;100791.66;5021069;28;20219;-83
2021/07/05 01:41:06;;;;;;;14.23;12.70;;;;;;;15.65;90.63;100682.78;5021710;28;20517;-82
2021/07/05 01:43:33;;;;;;;13.93;12.50;;;;;;;16.57;91.33;100841.75;5023744;28;20443;-82
2021/07/05 01:45:58;;;;;;;13.07;11.87;;;;;;;16.30;91.42;100809.78;5037279;28;20832;-82
2021/07/05 01:48:25;;;;;;;14.53;12.90;;;;;;;16.21;91.29;100779.56;5022045;28;20439;-82
2021/07/05 01:50:51;;;;;;;12.73;11.53;;;;;;;16.32;91.21;100769.78;5019929;28;20204;-82
2021/07/05 01:53:18;;;;;;;12.80;11.50;;;;;;;15.89;91.55;100725.03;5021117;28;20443;-81
2021/07/05 01:55:45;;;;;;;13.53;12.33;;;;;;;16.58;90.84;100822.56;5022455;28;20359;-82
2021/07/05 01:58:10;;;;;;;12.63;11.43;;;;;;;16.30;91.32;100790.84;5021477;28;20561;-82
2021/07/05 02:00:40;;;;;;;12.83;11.53;;;;;;;16.62;91.28;100823.72;5026138;28;20539;-82
2021/07/05 02:03:06;;;;;;;13.33;12.20;;;;;;;16.48;91.13;100804.22;5032179;28;20219;-82
2021/07/05 02:05:32;;;;;;;12.80;11.60;;;;;;;15.13;90.45;100581.66;5037232;28;20439;-82
2021/07/05 02:07:57;;;;;;;12.73;11.43;;;;;;;15.96;90.89;100730.28;5035851;28;20211;-82
2021/07/05 02:10:26;;;;;;;11.17;10.03;;;;;;;16.83;90.16;100807.94;5033944;28;20440;-82
2021/07/05 02:12:53;;;;;;;11.87;10.77;;;;;;;15.55;90.70;100621.22;5030599;28;20200;-82
2021/07/05 02:15:19;;;;;;;12.30;11.17;;;;;;;15.73;90.71;100677.88;5030726;28;20453;-82
2021/07/05 02:17:44;;;;;;;11.77;10.57;;;;;;;15.96;91.21;100714.06;5030659;28;20459;-83
2021/07/05 02:20:13;;;;;;;12.93;11.60;;;;;;;16.65;90.95;100809.72;5030205;28;20199;-82
2021/07/05 02:22:39;;;;;;;11.80;10.80;;;;;;;16.31;90.56;100741.06;5031322;28;20666;-83
2021/07/05 02:25:10;;;;;;;14.37;10.37;;;;;;;16.67;90.38;100771.56;5028382;28;20439;-83
2021/07/05 02:27:37;;;;;;;10.23;9.20;;;;;;;15.88;90.18;100707.16;5014829;28;20268;-82
2021/07/05 02:30:08;;;;;;;11.30;10.20;;;;;;;16.73;91.06;100822.06;5016288;28;20510;-83
2021/07/05 02:32:35;;;;;;;14.33;10.13;;;;;;;15.78;90.80;100693.41;5010037;28;21020;-83
2021/07/05 02:35:00;;;;;;;11.67;10.67;;;;;;;16.00;91.43;100726.91;5014480;28;20959;-82
2021/07/05 02:37:28;;;;;;;10.60;9.70;;;;;;;16.32;90.96;100760.84;5014178;28;20530;-82
2021/07/05 02:39:53;;;;;;;13.60;11.30;;;;;;;16.27;90.88;100764.25;5011521;28;20192;-82
2021/07/05 02:42:18;;;;;;;11.50;10.40;;;;;;;16.26;91.56;100776.16;5029658;28;21136;-82
2021/07/05 02:44:44;;;;;;;11.70;10.27;;;;;;;16.38;91.21;100789.66;5016177;28;20251;-82
2021/07/05 02:47:09;;;;;;;14.43;11.70;;;;;;;16.28;91.28;100761.28;5016966;28;20204;-82
2021/07/05 02:49:35;;;;;;;13.00;11.80;;;;;;;15.59;91.00;100665.63;5014083;28;20185;-83
2021/07/05 02:52:00;;;;;;;11.27;10.13;;;;;;;16.29;91.26;100764.84;5020511;28;20204;-82
2021/07/05 02:54:26;;;;;;;10.70;9.27;;;;;;;15.78;91.15;100683.41;5014263;28;20181;-83
2021/07/05 02:56:51;;;;;;;11.63;10.53;;;;;;;16.45;91.54;100831.75;5010990;28;20731;-82
2021/07/05 02:59:16;;;;;;;11.93;10.40;;;;;;;14.65;91.31;100517.06;5021298;28;20185;-83
2021/07/05 03:01:42;;;;;;;13.17;10.47;;;;;;;15.82;91.07;100686.44;5022740;28;20261;-83
2021/07/05 03:04:07;;;;;;;14.43;11.27;;;;;;;15.62;91.20;100661.63;5017024;28;20200;-82
2021/07/05 03:06:32;;;;;;;10.77;9.77;;;;;;;16.52;90.90;100801.03;5017556;28;20181;-82
2021/07/05 03:08:58;;;;;;;10.03;9.13;;;;;;;15.88;90.85;100673.84;5040681;28;20184;-82
2021/07/05 03:11:23;;;;;;;10.90;9.80;;;;;;;15.37;90.48;100605.97;5036463;28;20237;-82
2021/07/05 03:13:49;;;;;;;11.63;10.63;;;;;;;16.20;91.22;100758.97;5015620;28;20204;-82
2021/07/05 03:16:16;;;;;;;10.40;9.40;;;;;;;15.92;91.26;100686.69;5021142;28;20188;-82
2021/07/05 03:18:41;;;;;;;11.30;9.23;;;;;;;15.96;91.28;100692.44;5021093;28;20205;-83
2021/07/05 03:21:07;;;;;;;8.70;7.90;;;;;;;15.57;90.80;100649.66;5023782;28;20467;-82
2021/07/05 03:23:32;;;;;;;7.93;7.23;;;;;;;16.56;90.05;100740.75;5021050;28;20191;-82
2021/07/05 03:25:57;;;;;;;7.43;6.80;;;;;;;16.10;89.77;100674.88;5021402;28;20180;-83
2021/07/05 03:28:23;;;;;;;8.00;7.30;;;;;;;16.30;90.37;100741.31;5026749;28;20271;-82
2021/07/05 03:30:50;;;;;;;8.63;7.83;;;;;;;15.21;90.92;100590.44;5020707;28;20657;-82
2021/07/05 03:33:16;;;;;;;7.10;6.50;;;;;;;15.83;90.55;100671.88;5015575;28;20252;-82
2021/07/05 03:35:42;;;;;;;8.20;7.03;;;;;;;16.46;90.44;100784.69;5018176;28;20512;-82
2021/07/05 03:38:08;;;;;;;7.07;6.37;;;;;;;14.53;90.58;100483.84;5024194;28;20987;-82
2021/07/05 03:40:36;;;;;;;6.27;5.77;;;;;;;16.87;89.76;100807.22;5019771;28;20461;-82
2021/07/05 03:43:02;;;;;;;7.10;6.13;;;;;;;16.77;89.80;100800.75;5015946;28;20214;-82
2021/07/05 03:45:31;;;;;;;8.10;5.90;;;;;;;16.75;90.41;100806.41;5023057;28;20526;-82
2021/07/05 03:47:58;;;;;;;6.97;5.97;;;;;;;16.28;88.52;100674.69;5027929;28;20443;-83
2021/07/05 03:50:24;;;;;;;5.57;5.07;;;;;;;16.86;89.87;100805.56;5025263;28;20454;-83
2021/07/05 03:52:53;;;;;;;6.63;6.00;;;;;;;16.82;90.29;100807.09;5021698;28;20474;-83
2021/07/05 03:55:21;;;;;;;7.27;6.57;;;;;;;15.94;90.38;100686.41;5038812;28;20435;-82
2021/07/05 03:57:47;;;;;;;8.63;6.90;;;;;;;15.93;90.32;100682.91;5023194;28;20514;-82
2021/07/05 04:00:21;;;;;;;8.37;6.70;;;;;;;16.56;90.90;100811.16;5024695;28;20821;-82
2021/07/05 04:02:48;;;;;;;7.53;6.83;;;;;;;16.04;90.18;100705.59;5017086;28;20469;-83
2021/07/05 04:05:13;;;;;;;7.53;6.83;;;;;;;15.42;89.71;100648.47;5017156;28;20447;-82
2021/07/05 04:07:41;;;;;;;7.33;6.73;;;;;;;16.40;90.24;100769.41;5014549;28;20784;-82
2021/07/05 04:10:07;;;;;;;7.67;6.87;;;;;;;16.44;90.47;100765.16;5019304;28;20604;-83
2021/07/05 04:12:33;;;;;;;7.70;6.90;;;;;;;16.26;90.63;100752.63;5016982;28;22119;-83
2021/07/05 04:14:59;;;;;;;8.10;7.30;;;;;;;16.32;90.84;100767.06;5019078;28;21154;-82
2021/07/05 04:17:25;;;;;;;8.43;7.70;;;;;;;16.24;90.81;100795.31;5014735;28;20467;-82
2021/07/05 04:19:50;;;;;;;8.77;7.60;;;;;;;16.62;90.84;100831.03;5039740;28;20188;-82
2021/07/05 04:22:17;;;;;;;9.57;8.60;;;;;;;16.51;91.03;100840.81;5032598;28;20219;-81
2021/07/05 04:24:44;;;;;;;10.67;7.80;;;;;;;16.20;90.94;100793.31;5029735;28;20192;-81
2021/07/05 04:27:10;;;;;;;11.10;9.53;;;;;;;15.50;91.11;100678.66;5029432;28;20873;-81
2021/07/05 04:29:37;;;;;;;9.37;8.03;;;;;;;15.51;91.23;100685.75;5027355;28;20464;-82
2021/07/05 04:32:04;;;;;;;14.00;8.47;;;;;;;16.03;91.38;100772.41;5030577;28;20455;-82
2021/07/05 04:34:29;;;;;;;9.40;8.50;;;;;;;16.09;90.86;100781.47;5022243;28;20474;-81
2021/07/05 04:36:55;;;;;;;10.50;9.00;;;;;;;16.13;91.04;100779.09;5025741;28;20438;-82
2021/07/05 04:39:20;;;;;;;8.17;7.40;;;;;;;16.25;90.40;100815.91;5033892;28;20630;-82
2021/07/05 04:41:45;;;;;;;8.97;8.17;;;;;;;15.68;90.01;100694.00;5032762;28;20229;-81
2021/07/05 04:44:13;;;;;;;9.27;8.37;;;;;;;15.81;89.66;100720.78;5023374;28;20181;-81
2021/07/05 04:46:40;;;;;;;9.73;7.93;;;;;;;15.95;90.25;100739.47;5016746;28;20228;-81
2021/07/05 04:49:05;;;;;;;9.67;8.67;;;;;;;16.50;90.40;100833.78;5015153;28;20455;-82
2021/07/05 04:51:31;;;;;;;13.87;9.80;;;;;;;16.51;90.39;100830.00;5026914;28;21169;-82
2021/07/05 04:53:56;;;;;;;9.93;8.93;;;;;;;15.50;89.81;100669.75;5016476;28;20196;-82
2021/07/05 04:56:22;;;;;;;10.37;9.37;;;;;;;15.73;89.83;100695.97;5016875;28;20227;-81
2021/07/05 04:58:47;;;;;;;10.07;8.47;;;;;;;16.06;89.17;100738.66;5024454;28;20208;-82
2021/07/05 05:01:13;;;;;;;11.30;10.10;;;;;;;16.13;88.66;100735.81;5025012;28;20278;-83
2021/07/05 05:03:39;;;;;;;11.23;10.03;;;;;;;16.32;88.28;100780.59;5020927;28;20247;-82
2021/07/05 05:06:05;;;;;;;12.27;10.10;;;;;;;15.36;88.06;100659.19;5030517;28;20739;-82
2021/07/05 05:08:30;;;;;;;14.30;10.87;;;;;;;16.54;88.35;100821.41;5024640;28;20442;-82
2021/07/05 05:10:56;;;;;;;11.80;10.60;;;;;;;15.28;87.07;100605.50;5024231;28;20219;-83
2021/07/05 05:13:21;;;;;;;11.70;10.20;;;;;;;16.52;86.83;100819.97;5022546;28;20188;-84
2021/07/05 05:15:47;;;;;;;13.13;11.57;;;;;;;15.56;86.76;100687.72;5030644;28;20196;-82
2021/07/05 05:18:12;;;;;;;12.10;10.83;;;;;;;15.38;86.61;100654.34;5017146;28;20732;-83
2021/07/05 05:20:38;;;;;;;12.83;11.50;;;;;;;15.63;86.77;100680.34;5024604;28;20204;-83
2021/07/05 05:23:03;;;;;;;16.07;13.90;;;;;;;15.82;85.62;100670.22;5026451;28;20646;-84
2021/07/05 05:25:29;;;;;;;15.83;14.23;;;;;;;15.89;85.83;100703.38;5035944;28;20192;-82
2021/07/05 05:27:55;;;;;;;14.07;12.67;;;;;;;16.16;84.53;100690.16;5031041;28;20188;-83
2021/07/05 05:30:22;;;;;;;15.10;13.57;;;;;;;16.69;84.58;100772.13;5027016;28;20184;-82
2021/07/05 05:32:48;;;;;;;17.07;15.13;;;;;;;16.64;86.32;100801.84;5025146;28;20784;-81
2021/07/05 05:35:17;;;;;;;18.97;14.93;;;;;;;15.72;86.89;100707.88;5024568;28;20862;-81
2021/07/05 05:37:43;;;;;;;18.07;15.00;;;;;;;15.47;87.00;100635.91;5023489;28;20604;-81
2021/07/05 05:40:09;;;;;;;14.03;12.60;;;;;;;16.54;85.45;100780.78;5025714;28;20898;-81
2021/07/05 05:42:34;;;;;;;15.73;14.13;;;;;;;16.79;85.31;100793.22;5029161;28;20696;-82
2021/07/05 05:44:59;;;;;;;16.17;14.47;;;;;;;14.88;85.35;100506.25;5024673;28;20451;-82
2021/07/05 05:47:25;;;;;;;14.10;12.80;;;;;;;16.47;85.50;100764.69;5025242;28;20195;-82
2021/07/05 05:49:50;;;;;;;15.07;13.53;;;;;;;16.23;85.55;100736.03;5028202;28;20280;-80
2021/07/05 05:52:15;;;;;;;14.50;13.13;;;;;;;15.41;84.04;100571.97;5024890;28;20208;-81
2021/07/05 05:54:41;;;;;;;15.80;13.10;;;;;;;16.69;84.46;100793.81;5025861;28;20806;-81
2021/07/05 05:57:08;;;;;;;15.93;12.53;;;;;;;16.79;85.91;100796.75;5026167;28;20262;-81
2021/07/05 05:59:36;;;;;;;17.93;16.13;;;;;;;15.55;86.11;100611.22;5024818;28;20644;-81
2021/07/05 06:02:01;;;;;;;19.90;16.70;;;;;;;16.78;86.41;100815.94;5024170;28;20947;-81
2021/07/05 06:04:27;;;;;;;18.87;16.93;;;;;;;16.77;85.72;100817.84;5029267;28;20443;-80
2021/07/05 06:06:52;;;;;;;18.03;16.13;;;;;;;16.71;84.89;100802.53;5038067;28;20589;-83
2021/07/05 06:09:18;;;;;;;17.93;15.80;;;;;;;16.82;84.58;100809.81;5021368;28;20191;-81
2021/07/05 06:11:44;;;;;;;16.23;14.60;;;;;;;17.12;83.84;100808.75;5026572;28;20580;-82
2021/07/05 06:14:09;;;;;;;17.83;15.70;;;;;;;15.91;83.24;100647.19;5025143;28;20208;-81
2021/07/05 06:16:36;;;;;;;15.73;14.20;;;;;;;15.99;84.61;100638.66;5024001;28;20191;-82
2021/07/05 06:19:03;;;;;;;21.43;19.13;;;;;;;17.06;84.08;100805.13;5024438;28;20211;-81
2021/07/05 06:21:28;;;;;;;17.87;16.17;;;;;;;15.62;83.83;100561.59;5024040;28;20467;-82
2021/07/05 06:23:55;;;;;;;21.53;18.40;;;;;;;17.15;84.06;100800.13;5026694;28;20435;-81
2021/07/05 06:26:20;;;;;;;21.87;19.40;;;;;;;15.64;84.17;100571.13;5024999;28;20184;-81
2021/07/05 06:28:46;;;;;;;20.70;18.00;;;;;;;16.65;83.72;100722.25;5024966;28;20532;-81
2021/07/05 06:31:11;;;;;;;20.50;18.50;;;;;;;15.75;83.02;100586.53;5021860;28;20209;-82
2021/07/05 06:33:37;;;;;;;22.97;20.33;;;;;;;17.28;83.25;100796.31;5022901;28;20215;-81
2021/07/05 06:36:04;;;;;;;21.33;19.13;;;;;;;17.25;82.99;100803.03;5031218;28;20188;-81
2021/07/05 06:38:29;;;;;;;19.13;17.07;;;;;;;17.47;82.76;100805.03;5032921;28;20209;-80
2021/07/05 06:40:56;;;;;;;18.50;16.60;;;;;;;17.66;82.93;100792.88;5044045;28;20469;-80
2021/07/05 06:43:22;;;;;;;22.70;20.20;;;;;;;16.57;82.85;100687.41;5034825;28;20199;-82
2021/07/05 06:45:47;;;;;;;18.07;16.37;;;;;;;17.17;82.41;100725.66;5032721;28;20448;-81
2021/07/05 06:48:13;;;;;;;18.70;16.70;;;;;;;17.69;82.19;100789.66;5034448;28;20267;-80
2021/07/05 06:50:38;;;;;;;23.00;19.10;;;;;;;17.06;81.26;100723.81;5040512;28;20736;-81
2021/07/05 06:53:05;;;;;;;17.60;16.00;;;;;;;16.78;81.09;100658.84;5029238;28;20192;-83
2021/07/05 06:55:31;;;;;;;18.83;16.97;;;;;;;17.01;82.53;100704.78;5028099;28;20181;-81
2021/07/05 06:57:56;;;;;;;18.10;16.17;;;;;;;16.45;81.09;100622.50;5030445;28;20636;-82
2021/07/05 07:00:24;;;;;;;21.63;19.50;;;;;;;17.67;81.38;100789.09;5026867;28;20278;-81
2021/07/05 07:02:51;;;;;;;19.10;17.07;;;;;;;16.70;82.46;100636.50;5024590;28;20307;-79
2021/07/05 07:05:18;;;;;;;21.43;19.00;;;;;;;17.59;83.11;100800.38;5027067;28;20431;-81
2021/07/05 07:07:47;;;;;;;19.90;18.00;;;;;;;17.31;82.74;100731.56;5022298;28;20435;-82
2021/07/05 07:10:14;;;;;;;20.40;18.30;;;;;;;17.27;83.50;100768.38;5040469;28;20435;-82
2021/07/05 07:12:40;;;;;;;22.87;19.20;;;;;;;17.54;83.18;100806.50;5026559;28;20501;-83
2021/07/05 07:15:09;;;;;;;22.50;20.17;;;;;;;17.22;83.37;100781.03;5019588;28;20956;-81
2021/07/05 07:17:39;;;;;;;22.57;20.10;;;;;;;16.99;82.76;100763.00;5034537;28;20211;-83
2021/07/05 07:20:06;;;;;;;22.27;19.97;;;;;;;16.75;83.40;100765.78;5021050;28;20427;-82
2021/07/05 07:22:31;;;;;;;20.00;17.90;;;;;;;16.00;83.77;100643.03;5018182;28;20470;-81
2021/07/05 07:24:57;;;;;;;22.80;20.40;;;;;;;16.86;83.89;100799.31;5026506;28;20436;-82
2021/07/05 07:27:22;;;;;;;20.83;17.87;;;;;;;16.35;83.61;100706.22;5033641;28;20276;-81
2021/07/05 07:29:47;;;;;;;19.90;18.00;;;;;;;16.24;83.97;100664.59;5022810;28;20181;-82
2021/07/05 07:32:13;;;;;;;21.60;18.43;;;;;;;16.89;83.83;100764.47;5017713;28;20228;-81
2021/07/05 07:34:39;;;;;;;19.03;16.97;;;;;;;17.31;83.90;100810.19;5018916;28;20184;-81
2021/07/05 07:37:06;;;;;;;20.50;18.30;;;;;;;16.02;83.46;100659.81;5016974;28;20548;-80
2021/07/05 07:39:40;;;;;;;17.17;15.40;;;;;;;16.41;83.56;100697.16;5014196;28;20435;-80
2021/07/05 07:42:05;;;;;;;17.40;15.50;;;;;;;17.17;82.59;100820.50;5012352;28;20528;-79
2021/07/05 07:44:31;;;;;;;17.27;15.43;;;;;;;17.15;82.27;100817.25;5019345;28;20927;-80
2021/07/05 07:46:57;;;;;;;17.53;14.60;;;;;;;16.81;82.96;100759.44;5013716;28;20191;-80
2021/07/05 07:49:22;;;;;;;14.53;13.00;;;;;;;16.77;82.59;100736.56;5024867;28;20983;-78
2021/07/05 07:51:48;;;;;;;16.37;14.30;;;;;;;16.61;83.17;100729.22;5012595;28;21244;-80
2021/07/05 07:54:14;;;;;;;18.33;16.43;;;;;;;16.47;83.63;100718.66;5021095;28;20176;-81
2021/07/05 07:56:39;;;;;;;20.03;17.60;;;;;;;16.49;84.69;100757.16;5016602;28;20705;-80
2021/07/05 07:59:05;;;;;;;18.20;16.37;;;;;;;16.63;86.11;100792.06;5013957;28;20557;-80
2021/07/05 08:01:30;;;;;;;25.03;19.67;;;;;;;15.98;89.02;100766.06;5020492;28;20203;-81
2021/07/05 08:03:56;;;;;;;18.40;10.50;;;;;;;14.96;89.66;100748.16;5016821;28;20197;-81
2021/07/05 08:06:22;;;;;;;10.63;7.57;;;;;;;14.62;92.38;100742.38;5021017;28;20219;-80
2021/07/05 08:08:51;;;;;;;10.97;7.23;;;;;;;15.46;89.52;100841.56;5022122;28;20439;-83
2021/07/05 08:11:17;;;;;;;6.70;6.10;;;;;;;15.90;89.44;100867.31;5027953;28;21199;-84
2021/07/05 08:13:42;;;;;;;10.47;6.73;;;;;;;16.21;87.39;100855.34;5031895;28;20454;-83
2021/07/05 08:16:08;;;;;;;5.77;5.27;;;;;;;16.30;86.95;100860.41;5031331;28;20203;-83
2021/07/05 08:18:33;;;;;;;4.77;4.37;;;;;;;16.16;84.86;100822.72;5033005;28;20303;-83
2021/07/05 08:20:59;;;;;;;4.70;4.10;;;;;;;15.91;86.11;100800.50;5044142;28;20273;-83
2021/07/05 08:23:24;;;;;;;4.60;4.20;;;;;;;15.87;84.96;100781.22;5031107;28;20204;-84
2021/07/05 08:25:49;;;;;;;3.93;3.63;;;;;;;15.71;86.88;100780.06;5022917;28;20189;-83
2021/07/05 08:28:15;;;;;;;4.37;3.43;;;;;;;15.29;86.09;100709.81;5025478;28;20188;-83
2021/07/05 08:30:41;;;;;;;3.53;2.70;;;;;;;15.84;85.54;100773.59;5025378;28;20176;-83
2021/07/05 08:33:07;;;;;;;4.97;3.10;;;;;;;16.25;85.36;100837.56;5026619;28;20211;-83
2021/07/05 08:35:33;;;;;;;2.70;2.50;;;;;;;16.32;85.41;100848.28;5027620;28;20196;-84
2021/07/05 08:37:59;;;;;;;5.63;2.27;;;;;;;15.38;85.44;100677.84;5022446;28;20463;-84
2021/07/05 08:40:26;;;;;;;4.60;2.50;;;;;;;16.34;83.97;100846.13;5028744;28;21030;-84
2021/07/05 08:42:54;;;;;;;1.70;1.33;;;;;;;16.19;82.42;100824.16;5025746;28;20474;-84
2021/07/05 08:45:20;;;;;;;2.80;0.83;;;;;;;16.19;81.38;100870.16;5029189;28;20474;-83
2021/07/05 08:47:49;;;;;;;5.67;1.10;;;;;;;15.81;83.79;100833.56;5025336;28;20461;-85
2021/07/05 08:50:14;;;;;;;1.80;1.10;;;;;;;15.95;83.03;100824.16;5024225;28;20189;-83
2021/07/05 08:52:44;;;;;;;1.80;0.87;;;;;;;16.23;82.10;100863.22;5027510;28;21939;-83
2021/07/05 08:55:21;;;;;;;1.37;0.80;;;;;;;15.86;82.61;100789.59;5040549;28;20192;-83
2021/07/05 08:57:47;;;;;;;0.90;0.90;;;;;;;16.17;82.40;100861.44;5035289;28;20490;-84
2021/07/05 09:00:24;;;;;;;0.60;0.60;;;;;;;16.26;81.00;100863.56;5033572;28;20950;-83
2021/07/05 09:02:50;;;;;;;1.23;0.90;;;;;;;15.19;80.62;100706.03;5031752;28;20204;-85
2021/07/05 09:05:17;;;;;;;1.00;0.70;;;;;;;15.69;80.20;100787.56;5031363;28;20443;-85
2021/07/05 09:08:10;;;;;;;4.30;0.90;;;;;;;16.12;81.94;100869.47;5028079;28;21062;-84
2021/07/05 09:10:52;;;;;;;0.80;0.70;;;;;;;16.01;81.81;100871.91;5031118;28;20631;-81
2021/07/05 09:13:23;;;;;;;3.50;1.30;;;;;;;16.11;81.87;100881.31;5030204;28;20434;-84
2021/07/05 09:15:51;;;;;;;1.07;0.70;;;;;;;15.83;81.67;100866.59;5030945;28;20434;-85
2021/07/05 09:18:28;;;;;;;2.80;0.70;;;;;;;15.97;81.78;100886.16;5027048;28;20471;-83
2021/07/05 09:20:58;;;;;;;2.67;0.77;;;;;;;15.77;84.12;100890.00;5026793;28;20483;-84
2021/07/05 09:23:24;;;;;;;0.70;0.70;;;;;;;15.66;83.32;100850.19;5047072;28;20454;-84
2021/07/05 09:25:53;;;;;;;0.80;0.80;;;;;;;15.36;81.41;100793.47;5028370;28;20440;-84
2021/07/05 09:28:22;;;;;;;0.70;0.60;;;;;;;15.33;80.29;100767.75;5029789;28;20219;-83
2021/07/05 09:30:50;;;;;;;0.70;0.50;;;;;;;15.89;80.44;100854.03;5042240;28;20983;-84
2021/07/05 09:33:23;;;;;;;1.40;0.60;;;;;;;14.62;81.08;100642.50;5029677;28;20516;-83
2021/07/05 09:36:00;;;;;;;5.63;1.00;;;;;;;15.71;83.64;100879.28;5028193;28;20438;-84
2021/07/05 09:38:36;;;;;;;0.77;0.60;;;;;;;15.93;82.24;100831.69;5024051;28;20465;-83
2021/07/05 09:41:20;;;;;;;1.33;0.60;;;;;;;15.66;80.50;100757.44;5024634;28;20454;-83
2021/07/05 09:43:49;;;;;;;0.63;0.60;;;;;;;15.80;81.49;100777.81;5028000;28;20523;-84
2021/07/05 09:46:15;;;;;;;1.17;0.90;;;;;;;15.12;82.69;100712.34;5028788;28;20502;-82
2021/07/05 09:48:46;;;;;;;1.37;0.83;;;;;;;15.29;84.80;100779.25;5026385;28;20432;-82
2021/07/05 09:51:17;;;;;;;0.70;0.50;;;;;;;15.94;81.26;100792.75;5028798;28;20200;-84
2021/07/05 09:53:45;;;;;;;1.20;1.10;;;;;;;15.39;83.66;100725.47;5028111;28;20963;-83
2021/07/05 09:56:25;;;;;;;1.07;0.80;;;;;;;16.08;82.38;100831.22;5025784;28;20443;-85
2021/07/05 09:58:56;;;;;;;2.00;0.90;;;;;;;16.27;84.00;100870.63;5025432;28;20486;-83
2021/07/05 10:01:55;;;;;;;2.37;1.30;;;;;;;16.34;83.28;100864.25;5025446;28;20443;-83
2021/07/05 10:04:29;;;;;;;1.90;1.07;;;;;;;16.38;82.44;100895.22;5004313;28;20514;-84
2021/07/05 10:07:00;;;;;;;1.60;0.93;;;;;;;16.84;80.57;100885.44;5037786;28;20438;-83
2021/07/05 10:09:37;;;;;;;1.27;1.10;;;;;;;15.99;82.67;100819.91;5018079;28;20442;-84
2021/07/05 10:12:17;;;;;;;4.17;1.47;;;;;;;16.66;81.52;100889.91;5023081;28;20458;-84
2021/07/05 10:14:42;;;;;;;2.70;0.90;;;;;;;16.33;82.10;100868.03;5024994;28;21008;-84
2021/07/05 10:17:15;;;;;;;1.87;0.93;;;;;;;16.35;81.46;100901.94;5025145;28;20435;-83
2021/07/05 10:19:41;;;;;;;1.67;1.27;;;;;;;16.50;80.39;100896.88;5024556;28;20268;-83
2021/07/05 10:22:07;;;;;;;1.30;0.80;;;;;;;16.18;80.89;100814.41;5025306;28;20455;-82
2021/07/05 10:24:34;;;;;;;0.80;0.80;;;;;;;16.64;81.06;100864.13;5026377;28;20449;-82
2021/07/05 10:26:59;;;;;;;0.73;0.73;;;;;;;16.02;80.05;100710.41;5027403;28;21148;-84
2021/07/05 10:29:25;;;;;;;1.13;1.03;;;;;;;16.40;82.42;100799.19;5041561;28;20450;-83
2021/07/05 10:31:50;;;;;;;1.27;1.00;;;;;;;16.10;80.71;100663.22;5024799;28;20220;-83
2021/07/05 10:34:16;;;;;;;1.00;1.00;;;;;;;17.48;79.80;100891.56;5031124;28;20447;-83
2021/07/05 10:36:42;;;;;;;1.57;1.47;;;;;;;16.33;81.27;100847.22;5040997;28;20496;-83
2021/07/05 10:39:10;;;;;;;3.30;1.43;;;;;;;16.90;81.33;100888.00;5020323;28;20216;-83
2021/07/05 10:41:40;;;;;;;3.63;1.47;;;;;;;17.12;82.01;100909.84;5023878;28;20495;-82
2021/07/05 10:44:09;;;;;;;2.40;2.20;;;;;;;17.07;82.06;100900.81;5028529;28;20475;-81
2021/07/05 10:46:38;;;;;;;2.73;2.50;;;;;;;17.15;81.90;100894.97;5025322;28;20440;-82
2021/07/05 10:49:05;;;;;;;2.30;2.10;;;;;;;17.12;81.47;100887.34;5024234;28;20427;-81
2021/07/05 10:51:45;;;;;;;2.90;2.70;;;;;;;17.09;82.67;100888.63;5019760;28;20466;-82
2021/07/05 10:54:11;;;;;;;3.97;2.87;;;;;;;16.99;83.13;100890.34;5023817;28;20427;-83
2021/07/05 10:56:43;;;;;;;3.10;2.73;;;;;;;15.97;81.77;100700.31;5023636;28;20539;-83
2021/07/05 10:59:11;;;;;;;3.10;2.87;;;;;;;17.30;82.70;100880.91;5032671;28;20460;-82
2021/07/05 11:01:43;;;;;;;3.27;2.97;;;;;;;17.28;82.70;100874.91;5020609;28;20498;-82
2021/07/05 11:04:29;;;;;;;5.30;3.53;;;;;;;17.20;82.54;100870.69;5025223;28;20498;-82
2021/07/05 11:06:57;;;;;;;3.90;3.23;;;;;;;17.01;78.71;100815.88;5022276;28;20439;-83
2021/07/05 11:09:24;;;;;;;3.50;2.27;;;;;;;17.58;80.90;100874.63;5015426;28;20447;-83
2021/07/05 11:11:52;;;;;;;4.90;3.00;;;;;;;17.16;79.01;100770.09;5014742;28;20473;-82
2021/07/05 11:14:20;;;;;;;3.67;3.30;;;;;;;17.98;77.87;100873.72;5048495;28;20511;-82
2021/07/05 11:17:04;;;;;;;3.73;2.90;;;;;;;18.05;78.72;100874.34;5029857;28;20434;-82